sensor_id;sensor_type;location;lat;lon;timestamp;noise_LAeq;noise_LA_min;noise_LA_max;noise_LA01;noise_LA95
66888;Laerm;67239;51.680;5.976;2023-04-24T00:02:00;61.07;36.07;76.79;;
66888;Laerm;67239;51.680;5.976;2023-04-24T00:04:28;41.54;36.37;49.47;;
66888;Laerm;67239;51.680;5.976;2023-04-24T00:06:55;40.62;35.97;55.37;;
66888;Laerm;67239;51.680;5.976;2023-04-24T00:09:23;39.80;36.88;46.09;;
66888;Laerm;67239;51.680;5.976;2023-04-24T00:11:52;40.80;36.51;51.96;;
66888;Laerm;67239;51.680;5.976;2023-04-24T00:14:19;40.97;36.54;53.92;;
66888;Laerm;67239;51.680;5.976;2023-04-24T00:16:46;41.88;35.60;59.89;;
66888;Laerm;67239;51.680;5.976;2023-04-24T00:19:13;43.98;38.45;60.03;;
66888;Laerm;67239;51.680;5.976;2023-04-24T00:21:40;43.60;36.79;55.99;;
66888;Laerm;67239;51.680;5.976;2023-04-24T00:24:08;41.07;37.85;51.16;;
66888;Laerm;67239;51.680;5.976;2023-04-24T00:26:35;39.28;36.12;47.19;;
66888;Laerm;67239;51.680;5.976;2023-04-24T00:29:02;42.63;37.79;54.80;;
66888;Laerm;67239;51.680;5.976;2023-04-24T00:31:29;44.03;36.85;64.40;;
66888;Laerm;67239;51.680;5.976;2023-04-24T00:33:57;50.48;40.21;69.61;;
66888;Laerm;67239;51.680;5.976;2023-04-24T00:36:24;45.31;38.96;65.48;;
66888;Laerm;67239;51.680;5.976;2023-04-24T00:38:52;42.75;37.42;52.20;;
66888;Laerm;67239;51.680;5.976;2023-04-24T00:41:20;42.14;36.41;63.33;;
66888;Laerm;67239;51.680;5.976;2023-04-24T00:43:47;41.07;37.28;49.28;;
66888;Laerm;67239;51.680;5.976;2023-04-24T00:46:16;43.69;37.20;58.27;;
66888;Laerm;67239;51.680;5.976;2023-04-24T00:48:43;45.09;38.16;59.56;;
66888;Laerm;67239;51.680;5.976;2023-04-24T00:51:10;42.40;36.86;50.97;;
66888;Laerm;67239;51.680;5.976;2023-04-24T00:53:38;42.41;37.99;59.86;;
66888;Laerm;67239;51.680;5.976;2023-04-24T00:56:05;42.90;36.28;55.03;;
66888;Laerm;67239;51.680;5.976;2023-04-24T00:58:32;56.65;36.93;74.50;;
66888;Laerm;67239;51.680;5.976;2023-04-24T01:00:59;41.67;37.34;54.45;;
66888;Laerm;67239;51.680;5.976;2023-04-24T01:03:30;42.57;37.51;53.96;;
66888;Laerm;67239;51.680;5.976;2023-04-24T01:05:59;41.60;36.36;53.68;;
66888;Laerm;67239;51.680;5.976;2023-04-24T01:08:28;41.25;37.56;49.57;;
66888;Laerm;67239;51.680;5.976;2023-04-24T01:10:57;43.86;40.05;52.78;;
66888;Laerm;67239;51.680;5.976;2023-04-24T01:13:24;41.88;37.39;53.56;;
66888;Laerm;67239;51.680;5.976;2023-04-24T01:15:51;41.04;36.90;47.80;;
66888;Laerm;67239;51.680;5.976;2023-04-24T01:18:19;39.78;36.88;50.86;;
66888;Laerm;67239;51.680;5.976;2023-04-24T01:20:53;40.14;36.27;48.19;;
66888;Laerm;67239;51.680;5.976;2023-04-24T01:23:20;41.91;37.28;52.50;;
66888;Laerm;67239;51.680;5.976;2023-04-24T01:25:49;44.98;37.29;62.46;;
66888;Laerm;67239;51.680;5.976;2023-04-24T01:28:18;43.43;36.25;64.02;;
66888;Laerm;67239;51.680;5.976;2023-04-24T01:30:46;42.41;36.49;64.07;;
66888;Laerm;67239;51.680;5.976;2023-04-24T01:33:14;41.77;36.92;57.65;;
66888;Laerm;67239;51.680;5.976;2023-04-24T01:35:42;42.67;37.03;64.09;;
66888;Laerm;67239;51.680;5.976;2023-04-24T01:38:09;43.14;37.09;59.94;;
66888;Laerm;67239;51.680;5.976;2023-04-24T01:40:36;45.85;37.12;68.11;;
66888;Laerm;67239;51.680;5.976;2023-04-24T01:43:03;48.91;36.66;68.81;;
66888;Laerm;67239;51.680;5.976;2023-04-24T01:45:30;50.85;37.08;70.02;;
66888;Laerm;67239;51.680;5.976;2023-04-24T01:47:58;51.09;37.06;72.54;;
66888;Laerm;67239;51.680;5.976;2023-04-24T01:50:25;60.20;38.90;78.56;;
66888;Laerm;67239;51.680;5.976;2023-04-24T01:52:52;48.91;39.52;70.00;;
66888;Laerm;67239;51.680;5.976;2023-04-24T01:55:19;43.78;37.70;65.66;;
66888;Laerm;67239;51.680;5.976;2023-04-24T01:57:47;45.21;36.99;67.47;;
66888;Laerm;67239;51.680;5.976;2023-04-24T02:00:14;48.39;36.86;72.38;;
66888;Laerm;67239;51.680;5.976;2023-04-24T02:02:41;47.90;37.22;69.60;;
66888;Laerm;67239;51.680;5.976;2023-04-24T02:05:13;61.78;39.83;81.62;;
66888;Laerm;67239;51.680;5.976;2023-04-24T02:07:40;45.13;39.77;64.14;;
66888;Laerm;67239;51.680;5.976;2023-04-24T02:10:09;57.63;39.77;75.36;;
66888;Laerm;67239;51.680;5.976;2023-04-24T02:12:41;45.91;40.10;65.08;;
66888;Laerm;67239;51.680;5.976;2023-04-24T02:15:09;43.34;38.37;61.96;;
66888;Laerm;67239;51.680;5.976;2023-04-24T02:17:37;42.97;38.06;54.17;;
66888;Laerm;67239;51.680;5.976;2023-04-24T02:20:06;43.07;39.48;64.66;;
66888;Laerm;67239;51.680;5.976;2023-04-24T02:22:33;62.78;37.83;81.89;;
66888;Laerm;67239;51.680;5.976;2023-04-24T02:25:01;48.23;38.82;67.81;;
66888;Laerm;67239;51.680;5.976;2023-04-24T02:27:29;43.53;37.92;63.17;;
66888;Laerm;67239;51.680;5.976;2023-04-24T02:29:56;64.25;38.90;81.53;;
66888;Laerm;67239;51.680;5.976;2023-04-24T02:32:25;43.98;38.29;65.94;;
66888;Laerm;67239;51.680;5.976;2023-04-24T02:34:52;58.65;37.41;78.10;;
66888;Laerm;67239;51.680;5.976;2023-04-24T02:37:20;42.50;38.46;54.21;;
66888;Laerm;67239;51.680;5.976;2023-04-24T02:39:47;62.51;38.69;81.58;;
66888;Laerm;67239;51.680;5.976;2023-04-24T02:42:14;49.38;39.15;65.75;;
66888;Laerm;67239;51.680;5.976;2023-04-24T02:44:42;47.28;38.72;64.02;;
66888;Laerm;67239;51.680;5.976;2023-04-24T02:47:09;46.22;39.46;64.10;;
66888;Laerm;67239;51.680;5.976;2023-04-24T02:49:36;47.31;41.63;62.66;;
66888;Laerm;67239;51.680;5.976;2023-04-24T02:52:04;64.41;40.67;80.68;;
66888;Laerm;67239;51.680;5.976;2023-04-24T02:54:31;48.41;38.99;63.15;;
66888;Laerm;67239;51.680;5.976;2023-04-24T02:56:58;58.08;40.47;74.18;;
66888;Laerm;67239;51.680;5.976;2023-04-24T02:59:26;57.43;43.40;72.87;;
66888;Laerm;67239;51.680;5.976;2023-04-24T03:01:54;69.54;43.24;86.22;;
66888;Laerm;67239;51.680;5.976;2023-04-24T03:04:21;67.06;40.38;85.72;;
66888;Laerm;67239;51.680;5.976;2023-04-24T03:06:49;44.59;40.73;54.40;;
66888;Laerm;67239;51.680;5.976;2023-04-24T03:09:23;62.17;41.49;81.14;;
66888;Laerm;67239;51.680;5.976;2023-04-24T03:11:50;57.00;41.68;73.22;;
66888;Laerm;67239;51.680;5.976;2023-04-24T03:14:18;47.65;41.28;64.77;;
66888;Laerm;67239;51.680;5.976;2023-04-24T03:16:45;60.86;42.34;78.26;;
66888;Laerm;67239;51.680;5.976;2023-04-24T03:19:12;59.93;41.39;76.06;;
66888;Laerm;67239;51.680;5.976;2023-04-24T03:21:53;62.16;41.32;79.88;;
66888;Laerm;67239;51.680;5.976;2023-04-24T03:24:20;70.86;41.72;85.73;;
66888;Laerm;67239;51.680;5.976;2023-04-24T03:26:48;64.15;42.59;77.76;;
66888;Laerm;67239;51.680;5.976;2023-04-24T03:29:27;51.97;41.33;70.64;;
66888;Laerm;67239;51.680;5.976;2023-04-24T03:31:57;62.04;41.32;78.04;;
66888;Laerm;67239;51.680;5.976;2023-04-24T03:34:24;68.07;43.37;83.16;;
66888;Laerm;67239;51.680;5.976;2023-04-24T03:36:52;63.90;43.03;78.91;;
66888;Laerm;67239;51.680;5.976;2023-04-24T03:39:20;63.61;43.21;81.07;;
66888;Laerm;67239;51.680;5.976;2023-04-24T03:41:52;68.39;44.72;83.97;;
66888;Laerm;67239;51.680;5.976;2023-04-24T03:44:25;66.00;42.38;80.36;;
66888;Laerm;67239;51.680;5.976;2023-04-24T03:46:52;63.11;43.26;78.55;;
66888;Laerm;67239;51.680;5.976;2023-04-24T03:49:22;68.05;43.19;81.92;;
66888;Laerm;67239;51.680;5.976;2023-04-24T03:51:49;68.33;43.44;79.80;;
66888;Laerm;67239;51.680;5.976;2023-04-24T03:54:21;62.92;43.50;76.00;;
66888;Laerm;67239;51.680;5.976;2023-04-24T03:56:50;69.48;44.58;84.33;;
66888;Laerm;67239;51.680;5.976;2023-04-24T03:59:18;64.32;44.40;80.88;;
66888;Laerm;67239;51.680;5.976;2023-04-24T04:01:51;61.98;44.32;74.09;;
66888;Laerm;67239;51.680;5.976;2023-04-24T04:04:19;68.99;45.79;83.28;;
66888;Laerm;67239;51.680;5.976;2023-04-24T04:06:46;63.69;45.73;80.06;;
66888;Laerm;67239;51.680;5.976;2023-04-24T04:09:14;67.63;45.21;79.51;;
66888;Laerm;67239;51.680;5.976;2023-04-24T04:11:41;67.32;45.77;81.49;;
66888;Laerm;67239;51.680;5.976;2023-04-24T04:14:08;69.27;47.99;84.75;;
66888;Laerm;67239;51.680;5.976;2023-04-24T04:16:39;68.37;46.83;82.91;;
66888;Laerm;67239;51.680;5.976;2023-04-24T04:19:07;66.05;46.03;78.90;;
66888;Laerm;67239;51.680;5.976;2023-04-24T04:21:35;66.72;45.17;82.52;;
66888;Laerm;67239;51.680;5.976;2023-04-24T04:24:11;70.65;47.15;84.08;;
66888;Laerm;67239;51.680;5.976;2023-04-24T04:26:43;69.03;47.89;83.45;;
66888;Laerm;67239;51.680;5.976;2023-04-24T04:29:21;72.74;47.67;86.63;;
66888;Laerm;67239;51.680;5.976;2023-04-24T04:31:50;69.99;46.93;85.03;;
66888;Laerm;67239;51.680;5.976;2023-04-24T04:34:17;70.67;50.35;82.89;;
66888;Laerm;67239;51.680;5.976;2023-04-24T04:36:45;64.60;46.10;82.50;;
66888;Laerm;67239;51.680;5.976;2023-04-24T04:39:25;65.41;46.10;80.76;;
66888;Laerm;67239;51.680;5.976;2023-04-24T04:42:05;69.26;48.19;84.01;;
66888;Laerm;67239;51.680;5.976;2023-04-24T04:44:38;70.07;48.53;83.35;;
66888;Laerm;67239;51.680;5.976;2023-04-24T04:47:09;69.45;48.92;79.60;;
66888;Laerm;67239;51.680;5.976;2023-04-24T04:49:38;70.30;50.14;82.08;;
66888;Laerm;67239;51.680;5.976;2023-04-24T04:52:10;71.13;48.03;83.57;;
66888;Laerm;67239;51.680;5.976;2023-04-24T04:54:38;69.57;46.60;83.40;;
66888;Laerm;67239;51.680;5.976;2023-04-24T04:57:05;72.73;47.51;86.66;;
66888;Laerm;67239;51.680;5.976;2023-04-24T04:59:35;68.89;50.26;80.76;;
66888;Laerm;67239;51.680;5.976;2023-04-24T05:02:06;67.15;48.00;83.62;;
66888;Laerm;67239;51.680;5.976;2023-04-24T05:04:33;70.32;48.50;81.71;;
66888;Laerm;67239;51.680;5.976;2023-04-24T05:07:01;71.45;49.00;85.15;;
66888;Laerm;67239;51.680;5.976;2023-04-24T05:09:31;71.64;49.44;86.63;;
66888;Laerm;67239;51.680;5.976;2023-04-24T05:12:03;68.88;50.16;82.31;;
66888;Laerm;67239;51.680;5.976;2023-04-24T05:14:35;67.39;48.17;84.37;;
66888;Laerm;67239;51.680;5.976;2023-04-24T05:17:02;71.86;52.09;84.03;;
66888;Laerm;67239;51.680;5.976;2023-04-24T05:19:30;72.65;56.79;83.30;;
66888;Laerm;67239;51.680;5.976;2023-04-24T05:22:00;74.14;51.72;88.72;;
66888;Laerm;67239;51.680;5.976;2023-04-24T05:24:30;72.60;50.03;83.37;;
66888;Laerm;67239;51.680;5.976;2023-04-24T05:27:10;71.42;48.41;84.67;;
66888;Laerm;67239;51.680;5.976;2023-04-24T05:29:39;66.75;48.30;79.61;;
66888;Laerm;67239;51.680;5.976;2023-04-24T05:32:08;70.27;48.52;83.47;;
66888;Laerm;67239;51.680;5.976;2023-04-24T05:34:35;72.61;48.95;85.33;;
66888;Laerm;67239;51.680;5.976;2023-04-24T05:37:05;71.00;50.11;84.58;;
66888;Laerm;67239;51.680;5.976;2023-04-24T05:39:36;64.41;48.59;78.82;;
66888;Laerm;67239;51.680;5.976;2023-04-24T05:42:03;70.26;50.02;83.58;;
66888;Laerm;67239;51.680;5.976;2023-04-24T05:44:31;73.02;52.16;83.01;;
66888;Laerm;67239;51.680;5.976;2023-04-24T05:46:59;70.29;50.90;85.73;;
66888;Laerm;67239;51.680;5.976;2023-04-24T05:49:26;72.89;51.20;88.13;;
66888;Laerm;67239;51.680;5.976;2023-04-24T05:51:57;73.65;49.80;87.31;;
66888;Laerm;67239;51.680;5.976;2023-04-24T05:54:24;70.73;50.42;82.03;;
66888;Laerm;67239;51.680;5.976;2023-04-24T05:56:51;70.84;51.47;82.63;;
66888;Laerm;67239;51.680;5.976;2023-04-24T05:59:31;71.45;51.83;84.59;;
66888;Laerm;67239;51.680;5.976;2023-04-24T06:01:58;71.88;51.52;83.44;;
66888;Laerm;67239;51.680;5.976;2023-04-24T06:04:25;73.78;51.50;84.94;;
66888;Laerm;67239;51.680;5.976;2023-04-24T06:06:53;73.89;52.79;87.54;;
66888;Laerm;67239;51.680;5.976;2023-04-24T06:09:23;71.95;51.77;82.80;;
66888;Laerm;67239;51.680;5.976;2023-04-24T06:11:50;72.90;54.21;83.68;;
66888;Laerm;67239;51.680;5.976;2023-04-24T06:14:24;73.67;53.09;86.47;;
66888;Laerm;67239;51.680;5.976;2023-04-24T06:17:13;71.59;52.70;83.97;;
66888;Laerm;67239;51.680;5.976;2023-04-24T06:19:41;72.25;53.78;84.97;;
66888;Laerm;67239;51.680;5.976;2023-04-24T06:22:08;71.32;50.95;84.59;;
66888;Laerm;67239;51.680;5.976;2023-04-24T06:24:37;71.42;50.85;80.84;;
66888;Laerm;67239;51.680;5.976;2023-04-24T06:27:04;70.27;49.78;85.48;;
66888;Laerm;67239;51.680;5.976;2023-04-24T06:29:32;69.00;49.50;85.15;;
66888;Laerm;67239;51.680;5.976;2023-04-24T06:32:00;72.33;52.72;83.88;;
66888;Laerm;67239;51.680;5.976;2023-04-24T06:34:27;72.21;49.69;86.29;;
66888;Laerm;67239;51.680;5.976;2023-04-24T06:36:54;71.04;50.81;83.81;;
66888;Laerm;67239;51.680;5.976;2023-04-24T06:39:21;69.79;47.23;83.91;;
66888;Laerm;67239;51.680;5.976;2023-04-24T06:41:48;70.07;47.95;83.88;;
66888;Laerm;67239;51.680;5.976;2023-04-24T06:44:19;69.26;48.18;83.06;;
66888;Laerm;67239;51.680;5.976;2023-04-24T06:46:49;72.83;50.35;83.78;;
66888;Laerm;67239;51.680;5.976;2023-04-24T06:49:16;69.46;52.59;81.57;;
66888;Laerm;67239;51.680;5.976;2023-04-24T06:51:43;73.74;55.14;86.31;;
66888;Laerm;67239;51.680;5.976;2023-04-24T06:54:10;70.46;52.38;85.31;;
66888;Laerm;67239;51.680;5.976;2023-04-24T06:56:37;73.15;52.84;86.99;;
66888;Laerm;67239;51.680;5.976;2023-04-24T06:59:05;75.87;54.20;87.02;;
66888;Laerm;67239;51.680;5.976;2023-04-24T07:01:31;74.45;52.57;87.69;;
66888;Laerm;67239;51.680;5.976;2023-04-24T07:03:59;73.11;54.00;86.18;;
66888;Laerm;67239;51.680;5.976;2023-04-24T07:06:26;70.99;50.96;84.07;;
66888;Laerm;67239;51.680;5.976;2023-04-24T07:08:54;73.18;50.74;87.00;;
66888;Laerm;67239;51.680;5.976;2023-04-24T07:11:21;70.83;51.58;84.20;;
66888;Laerm;67239;51.680;5.976;2023-04-24T07:13:48;68.51;49.92;82.93;;
66888;Laerm;67239;51.680;5.976;2023-04-24T07:16:16;68.24;51.55;80.53;;
66888;Laerm;67239;51.680;5.976;2023-04-24T07:18:43;71.96;52.54;82.91;;
66888;Laerm;67239;51.680;5.976;2023-04-24T07:21:10;69.10;49.16;83.93;;
66888;Laerm;67239;51.680;5.976;2023-04-24T07:23:38;68.95;48.68;87.14;;
66888;Laerm;67239;51.680;5.976;2023-04-24T07:26:05;74.59;53.17;86.64;;
66888;Laerm;67239;51.680;5.976;2023-04-24T07:28:32;69.62;51.15;83.85;;
66888;Laerm;67239;51.680;5.976;2023-04-24T07:30:59;68.00;50.98;82.64;;
66888;Laerm;67239;51.680;5.976;2023-04-24T07:33:27;71.44;51.65;84.79;;
66888;Laerm;67239;51.680;5.976;2023-04-24T07:35:54;72.40;50.14;84.04;;
66888;Laerm;67239;51.680;5.976;2023-04-24T07:38:21;71.77;52.04;87.20;;
66888;Laerm;67239;51.680;5.976;2023-04-24T07:40:49;68.74;51.39;81.02;;
66888;Laerm;67239;51.680;5.976;2023-04-24T07:43:16;73.62;52.60;85.63;;
66888;Laerm;67239;51.680;5.976;2023-04-24T07:45:43;73.16;53.42;85.57;;
66888;Laerm;67239;51.680;5.976;2023-04-24T07:48:11;72.40;51.14;84.55;;
66888;Laerm;67239;51.680;5.976;2023-04-24T07:50:40;70.85;50.83;84.57;;
66888;Laerm;67239;51.680;5.976;2023-04-24T07:53:07;74.49;54.99;87.67;;
66888;Laerm;67239;51.680;5.976;2023-04-24T07:55:34;71.96;52.01;85.18;;
66888;Laerm;67239;51.680;5.976;2023-04-24T07:58:02;72.34;50.49;83.05;;
66888;Laerm;67239;51.680;5.976;2023-04-24T08:00:29;73.92;55.17;85.14;;
66888;Laerm;67239;51.680;5.976;2023-04-24T08:02:56;73.71;54.89;86.50;;
66888;Laerm;67239;51.680;5.976;2023-04-24T08:05:23;70.25;55.28;83.93;;
66888;Laerm;67239;51.680;5.976;2023-04-24T08:07:52;72.78;55.71;86.74;;
66888;Laerm;67239;51.680;5.976;2023-04-24T08:10:22;71.38;53.87;87.49;;
66888;Laerm;67239;51.680;5.976;2023-04-24T08:12:49;71.86;54.13;83.97;;
66888;Laerm;67239;51.680;5.976;2023-04-24T08:15:16;72.20;53.68;87.52;;
66888;Laerm;67239;51.680;5.976;2023-04-24T08:17:44;71.75;52.63;85.75;;
66888;Laerm;67239;51.680;5.976;2023-04-24T08:20:11;71.56;53.99;84.66;;
66888;Laerm;67239;51.680;5.976;2023-04-24T08:22:41;69.87;53.30;84.97;;
66888;Laerm;67239;51.680;5.976;2023-04-24T08:25:10;73.49;53.71;86.00;;
66888;Laerm;67239;51.680;5.976;2023-04-24T08:27:37;73.18;51.64;87.29;;
66888;Laerm;67239;51.680;5.976;2023-04-24T08:30:07;71.79;53.21;87.77;;
66888;Laerm;67239;51.680;5.976;2023-04-24T08:32:34;73.53;54.75;84.71;;
66888;Laerm;67239;51.680;5.976;2023-04-24T08:35:01;72.37;53.28;91.63;;
66888;Laerm;67239;51.680;5.976;2023-04-24T08:37:28;74.15;53.36;87.17;;
66888;Laerm;67239;51.680;5.976;2023-04-24T08:39:55;71.68;52.94;84.60;;
66888;Laerm;67239;51.680;5.976;2023-04-24T08:42:23;73.99;52.95;85.74;;
66888;Laerm;67239;51.680;5.976;2023-04-24T08:44:51;72.60;52.38;88.31;;
66888;Laerm;67239;51.680;5.976;2023-04-24T08:47:20;70.71;50.89;87.18;;
66888;Laerm;67239;51.680;5.976;2023-04-24T08:49:48;73.72;52.01;88.32;;
66888;Laerm;67239;51.680;5.976;2023-04-24T08:52:18;72.01;49.96;88.51;;
66888;Laerm;67239;51.680;5.976;2023-04-24T08:54:46;72.44;52.75;84.47;;
66888;Laerm;67239;51.680;5.976;2023-04-24T08:57:14;74.23;55.04;87.44;;
66888;Laerm;67239;51.680;5.976;2023-04-24T08:59:43;69.79;50.89;86.73;;
66888;Laerm;67239;51.680;5.976;2023-04-24T09:02:11;68.79;51.63;81.66;;
66888;Laerm;67239;51.680;5.976;2023-04-24T09:04:40;70.43;52.40;83.02;;
66888;Laerm;67239;51.680;5.976;2023-04-24T09:07:10;74.50;56.25;86.96;;
66888;Laerm;67239;51.680;5.976;2023-04-24T09:09:40;70.56;50.70;84.30;;
66888;Laerm;67239;51.680;5.976;2023-04-24T09:12:08;68.04;52.04;80.28;;
66888;Laerm;67239;51.680;5.976;2023-04-24T09:14:37;72.17;51.38;85.58;;
66888;Laerm;67239;51.680;5.976;2023-04-24T09:17:09;72.46;55.18;86.25;;
66888;Laerm;67239;51.680;5.976;2023-04-24T09:19:36;74.59;56.02;87.95;;
66888;Laerm;67239;51.680;5.976;2023-04-24T09:22:08;70.88;51.21;84.61;;
66888;Laerm;67239;51.680;5.976;2023-04-24T09:24:36;69.96;50.42;84.59;;
66888;Laerm;67239;51.680;5.976;2023-04-24T09:27:03;69.26;50.54;81.54;;
66888;Laerm;67239;51.680;5.976;2023-04-24T09:29:30;71.77;50.07;84.70;;
66888;Laerm;67239;51.680;5.976;2023-04-24T09:32:19;71.68;50.04;85.32;;
66888;Laerm;67239;51.680;5.976;2023-04-24T09:34:48;70.17;49.59;84.96;;
66888;Laerm;67239;51.680;5.976;2023-04-24T09:37:29;69.09;48.50;85.58;;
66888;Laerm;67239;51.680;5.976;2023-04-24T09:40:23;72.34;53.13;83.42;;
66888;Laerm;67239;51.680;5.976;2023-04-24T09:42:55;72.46;53.50;82.65;;
66888;Laerm;67239;51.680;5.976;2023-04-24T09:45:38;70.42;49.87;84.51;;
66888;Laerm;67239;51.680;5.976;2023-04-24T09:48:09;70.43;51.04;83.26;;
66888;Laerm;67239;51.680;5.976;2023-04-24T09:50:37;70.21;51.38;84.39;;
66888;Laerm;67239;51.680;5.976;2023-04-24T09:53:06;73.53;54.80;86.45;;
66888;Laerm;67239;51.680;5.976;2023-04-24T09:55:45;72.05;52.79;85.68;;
66888;Laerm;67239;51.680;5.976;2023-04-24T09:58:12;71.66;52.08;83.45;;
66888;Laerm;67239;51.680;5.976;2023-04-24T10:00:40;70.96;49.63;82.90;;
66888;Laerm;67239;51.680;5.976;2023-04-24T10:03:07;72.10;52.41;84.98;;
66888;Laerm;67239;51.680;5.976;2023-04-24T10:05:36;69.72;52.54;82.77;;
66888;Laerm;67239;51.680;5.976;2023-04-24T10:08:06;71.98;56.13;84.38;;
66888;Laerm;67239;51.680;5.976;2023-04-24T10:10:40;72.92;51.47;84.50;;
66888;Laerm;67239;51.680;5.976;2023-04-24T10:13:09;69.40;49.49;84.31;;
66888;Laerm;67239;51.680;5.976;2023-04-24T10:15:38;71.99;51.97;82.83;;
66888;Laerm;67239;51.680;5.976;2023-04-24T10:18:06;72.36;48.39;88.79;;
66888;Laerm;67239;51.680;5.976;2023-04-24T10:20:36;69.24;50.73;79.88;;
66888;Laerm;67239;51.680;5.976;2023-04-24T10:23:04;71.55;50.59;82.69;;
66888;Laerm;67239;51.680;5.976;2023-04-24T10:25:34;65.10;49.59;81.52;;
66888;Laerm;67239;51.680;5.976;2023-04-24T10:28:02;68.95;48.20;80.29;;
66888;Laerm;67239;51.680;5.976;2023-04-24T10:30:34;68.44;49.71;81.70;;
66888;Laerm;67239;51.680;5.976;2023-04-24T10:33:08;71.85;49.90;84.15;;
66888;Laerm;67239;51.680;5.976;2023-04-24T10:35:42;70.26;50.12;82.24;;
66888;Laerm;67239;51.680;5.976;2023-04-24T10:38:13;74.87;59.97;90.15;;
66888;Laerm;67239;51.680;5.976;2023-04-24T10:40:42;71.15;51.79;83.50;;
66888;Laerm;67239;51.680;5.976;2023-04-24T10:43:10;70.16;52.79;81.65;;
66888;Laerm;67239;51.680;5.976;2023-04-24T10:45:39;66.40;49.08;80.14;;
66888;Laerm;67239;51.680;5.976;2023-04-24T10:48:08;72.83;50.29;91.93;;
66888;Laerm;67239;51.680;5.976;2023-04-24T10:50:51;69.49;49.07;83.12;;
66888;Laerm;67239;51.680;5.976;2023-04-24T10:53:22;70.13;49.90;83.53;;
66888;Laerm;67239;51.680;5.976;2023-04-24T10:56:06;68.83;50.19;81.82;;
66888;Laerm;67239;51.680;5.976;2023-04-24T10:58:49;71.52;52.73;86.26;;
66888;Laerm;67239;51.680;5.976;2023-04-24T11:01:31;67.04;48.39;80.30;;
66888;Laerm;67239;51.680;5.976;2023-04-24T11:04:02;68.24;49.45;79.92;;
66888;Laerm;67239;51.680;5.976;2023-04-24T11:06:37;71.81;52.92;82.11;;
66888;Laerm;67239;51.680;5.976;2023-04-24T11:09:07;70.62;52.68;86.29;;
66888;Laerm;67239;51.680;5.976;2023-04-24T11:11:37;70.29;50.50;83.79;;
66888;Laerm;67239;51.680;5.976;2023-04-24T11:14:08;71.56;49.68;83.67;;
66888;Laerm;67239;51.680;5.976;2023-04-24T11:21:50;67.78;48.57;78.58;;
66888;Laerm;67239;51.680;5.976;2023-04-24T11:27:15;69.38;48.87;82.34;;
66888;Laerm;67239;51.680;5.976;2023-04-24T11:32:27;69.76;51.00;82.94;;
66888;Laerm;67239;51.680;5.976;2023-04-24T11:37:39;69.99;50.53;81.85;;
66888;Laerm;67239;51.680;5.976;2023-04-24T11:40:09;64.17;44.23;76.89;;
66888;Laerm;67239;51.680;5.976;2023-04-24T11:42:42;70.60;50.35;83.38;;
66888;Laerm;67239;51.680;5.976;2023-04-24T11:45:15;70.45;47.54;84.27;;
66888;Laerm;67239;51.680;5.976;2023-04-24T11:47:44;69.27;48.41;85.16;;
66888;Laerm;67239;51.680;5.976;2023-04-24T11:50:14;70.63;48.48;84.78;;
66888;Laerm;67239;51.680;5.976;2023-04-24T11:52:44;68.65;46.72;80.74;;
66888;Laerm;67239;51.680;5.976;2023-04-24T11:57:47;71.30;52.16;84.14;;
66888;Laerm;67239;51.680;5.976;2023-04-24T12:00:20;69.96;51.64;80.68;;
66888;Laerm;67239;51.680;5.976;2023-04-24T12:02:49;67.27;49.07;78.84;;
66888;Laerm;67239;51.680;5.976;2023-04-24T12:05:24;73.66;48.95;86.23;;
66888;Laerm;67239;51.680;5.976;2023-04-24T12:07:52;67.58;49.16;80.79;;
66888;Laerm;67239;51.680;5.976;2023-04-24T12:10:22;68.69;50.77;83.23;;
66888;Laerm;67239;51.680;5.976;2023-04-24T12:12:51;69.91;48.10;81.37;;
66888;Laerm;67239;51.680;5.976;2023-04-24T12:15:20;70.76;50.37;82.70;;
66888;Laerm;67239;51.680;5.976;2023-04-24T12:17:49;68.98;47.89;82.44;;
66888;Laerm;67239;51.680;5.976;2023-04-24T12:20:28;69.76;52.13;83.76;;
66888;Laerm;67239;51.680;5.976;2023-04-24T12:22:59;67.42;48.11;82.08;;
66888;Laerm;67239;51.680;5.976;2023-04-24T12:25:32;68.36;49.58;81.53;;
66888;Laerm;67239;51.680;5.976;2023-04-24T12:30:33;69.63;51.51;83.32;;
66888;Laerm;67239;51.680;5.976;2023-04-24T12:33:02;71.03;50.33;82.37;;
66888;Laerm;67239;51.680;5.976;2023-04-24T12:35:32;71.61;50.19;83.35;;
66888;Laerm;67239;51.680;5.976;2023-04-24T12:38:12;69.19;49.92;84.86;;
66888;Laerm;67239;51.680;5.976;2023-04-24T12:40:41;69.92;49.51;83.74;;
66888;Laerm;67239;51.680;5.976;2023-04-24T12:43:20;67.02;48.41;79.45;;
66888;Laerm;67239;51.680;5.976;2023-04-24T12:45:48;69.27;48.01;82.07;;
66888;Laerm;67239;51.680;5.976;2023-04-24T12:48:15;70.46;52.41;83.17;;
66888;Laerm;67239;51.680;5.976;2023-04-24T12:50:43;67.54;49.30;83.68;;
66888;Laerm;67239;51.680;5.976;2023-04-24T12:53:14;70.67;47.74;85.28;;
66888;Laerm;67239;51.680;5.976;2023-04-24T12:55:41;68.62;50.88;79.92;;
66888;Laerm;67239;51.680;5.976;2023-04-24T12:58:08;70.77;49.81;81.53;;
66888;Laerm;67239;51.680;5.976;2023-04-24T13:00:36;68.26;51.63;80.90;;
66888;Laerm;67239;51.680;5.976;2023-04-24T13:03:04;69.94;50.63;85.00;;
66888;Laerm;67239;51.680;5.976;2023-04-24T13:05:31;66.55;49.64;78.16;;
66888;Laerm;67239;51.680;5.976;2023-04-24T13:07:58;69.24;49.49;81.04;;
66888;Laerm;67239;51.680;5.976;2023-04-24T13:10:25;69.98;51.67;83.12;;
66888;Laerm;67239;51.680;5.976;2023-04-24T13:12:52;70.69;51.45;82.99;;
66888;Laerm;67239;51.680;5.976;2023-04-24T13:15:19;66.64;49.50;79.80;;
66888;Laerm;67239;51.680;5.976;2023-04-24T13:17:46;70.30;50.09;81.08;;
66888;Laerm;67239;51.680;5.976;2023-04-24T13:20:13;70.35;51.29;86.14;;
66888;Laerm;67239;51.680;5.976;2023-04-24T13:22:40;70.64;48.77;84.12;;
66888;Laerm;67239;51.680;5.976;2023-04-24T13:25:08;70.27;47.55;83.20;;
66888;Laerm;67239;51.680;5.976;2023-04-24T13:27:38;67.23;47.81;80.23;;
66888;Laerm;67239;51.680;5.976;2023-04-24T13:30:07;71.29;49.13;83.47;;
66888;Laerm;67239;51.680;5.976;2023-04-24T13:32:34;69.20;46.84;83.45;;
66888;Laerm;67239;51.680;5.976;2023-04-24T13:35:02;68.35;45.59;82.31;;
66888;Laerm;67239;51.680;5.976;2023-04-24T13:37:29;69.61;47.57;81.84;;
66888;Laerm;67239;51.680;5.976;2023-04-24T13:39:57;70.38;46.84;81.71;;
66888;Laerm;67239;51.680;5.976;2023-04-24T13:42:24;69.38;47.55;81.91;;
66888;Laerm;67239;51.680;5.976;2023-04-24T13:44:52;66.67;46.66;80.19;;
66888;Laerm;67239;51.680;5.976;2023-04-24T13:47:19;68.47;47.57;83.36;;
66888;Laerm;67239;51.680;5.976;2023-04-24T13:49:46;71.09;51.44;83.36;;
66888;Laerm;67239;51.680;5.976;2023-04-24T13:52:13;71.85;53.10;85.94;;
66888;Laerm;67239;51.680;5.976;2023-04-24T13:54:40;69.52;49.41;83.48;;
66888;Laerm;67239;51.680;5.976;2023-04-24T13:57:07;66.43;46.86;80.85;;
66888;Laerm;67239;51.680;5.976;2023-04-24T13:59:34;64.12;47.14;77.73;;
66888;Laerm;67239;51.680;5.976;2023-04-24T14:02:01;69.28;49.57;78.99;;
66888;Laerm;67239;51.680;5.976;2023-04-24T14:04:28;69.50;50.61;80.90;;
66888;Laerm;67239;51.680;5.976;2023-04-24T14:06:56;69.75;50.40;81.68;;
66888;Laerm;67239;51.680;5.976;2023-04-24T14:09:23;69.89;51.24;81.71;;
66888;Laerm;67239;51.680;5.976;2023-04-24T14:11:51;68.78;48.85;81.19;;
66888;Laerm;67239;51.680;5.976;2023-04-24T14:14:18;69.17;48.81;79.42;;